createdAt,value
2018-09-04T00:00:57.214Z,17.10
2018-09-04T00:03:27.484Z,17.10
2018-09-04T00:05:57.708Z,17.10
2018-09-04T00:08:27.768Z,17.10
2018-09-04T00:10:57.966Z,17.10
2018-09-04T00:13:28.174Z,17.10
2018-09-04T00:15:58.311Z,17.10
2018-09-04T00:18:28.426Z,17.10
2018-09-04T00:20:58.455Z,17.10
2018-09-04T00:23:28.570Z,17.10
2018-09-04T00:25:58.605Z,17.10
2018-09-04T00:28:28.662Z,17.10
2018-09-04T00:30:59.642Z,17.00
2018-09-04T00:33:29.942Z,17.00
2018-09-04T00:36:00.090Z,17.00
2018-09-04T00:38:30.258Z,17.00
2018-09-04T00:41:00.313Z,17.00
2018-09-04T00:43:30.460Z,17.00
2018-09-04T00:46:00.564Z,17.00
2018-09-04T00:48:30.707Z,17.00
2018-09-04T00:51:00.878Z,17.00
2018-09-04T00:53:30.972Z,17.00
2018-09-04T00:56:01.012Z,17.00
2018-09-04T00:58:31.211Z,16.90
2018-09-04T01:01:01.408Z,16.90
2018-09-04T01:03:31.920Z,16.90
2018-09-04T01:06:01.961Z,16.90
2018-09-04T01:08:32.351Z,16.80
2018-09-04T01:11:02.600Z,16.80
2018-09-04T01:13:33.098Z,16.80
2018-09-04T01:16:03.280Z,16.80
2018-09-04T01:18:33.454Z,16.80
2018-09-04T01:21:03.561Z,16.80
2018-09-04T01:23:33.637Z,16.80
2018-09-04T01:26:03.839Z,16.70
2018-09-04T01:28:34.084Z,16.70
2018-09-04T01:31:04.304Z,16.70
2018-09-04T01:33:34.466Z,16.70
2018-09-04T01:36:04.989Z,16.70
2018-09-04T01:38:35.683Z,16.70
2018-09-04T01:41:05.915Z,16.70
2018-09-04T01:43:36.101Z,16.70
2018-09-04T01:46:06.284Z,16.70
2018-09-04T01:48:36.405Z,16.70
2018-09-04T01:51:06.843Z,16.70
2018-09-04T01:53:36.987Z,16.70
2018-09-04T01:56:07.311Z,16.70
2018-09-04T01:58:37.705Z,16.70
2018-09-04T02:01:07.923Z,16.70
2018-09-04T02:03:38.358Z,16.70
2018-09-04T02:06:08.471Z,16.70
2018-09-04T02:08:38.517Z,16.70
2018-09-04T02:11:08.729Z,16.70
2018-09-04T02:13:38.970Z,16.70
2018-09-04T02:16:09.223Z,16.70
2018-09-04T02:18:39.319Z,16.70
2018-09-04T02:21:09.445Z,16.70
2018-09-04T02:23:39.613Z,16.70
2018-09-04T02:26:09.757Z,16.70
2018-09-04T02:28:40.317Z,16.70
2018-09-04T02:31:10.373Z,16.60
2018-09-04T02:33:40.415Z,16.60
2018-09-04T02:36:10.607Z,16.60
2018-09-04T02:38:40.920Z,16.60
2018-09-04T02:41:11.077Z,16.50
2018-09-04T02:43:41.243Z,16.50
2018-09-04T02:46:11.308Z,16.50
2018-09-04T02:48:41.537Z,16.50
2018-09-04T02:51:11.641Z,16.40
2018-09-04T02:53:41.825Z,16.40
2018-09-04T02:56:11.979Z,16.40
2018-09-04T02:58:42.135Z,16.40
2018-09-04T03:01:12.206Z,16.30
2018-09-04T03:03:42.383Z,16.30
2018-09-04T03:06:12.492Z,16.30
2018-09-04T03:08:42.555Z,16.20
2018-09-04T03:11:12.708Z,16.20
2018-09-04T03:13:42.897Z,16.20
2018-09-04T03:16:12.883Z,16.20
2018-09-04T03:18:43.058Z,16.10
2018-09-04T03:21:13.189Z,16.10
2018-09-04T03:23:43.309Z,16.10
2018-09-04T03:26:13.861Z,16.10
2018-09-04T03:28:43.986Z,16.10
2018-09-04T03:31:13.987Z,16.10
2018-09-04T03:33:44.097Z,16.10
2018-09-04T03:36:14.113Z,16.10
2018-09-04T03:38:44.233Z,16.10
2018-09-04T03:41:14.286Z,16.10
2018-09-04T03:43:45.095Z,16.10
2018-09-04T03:46:15.212Z,16.10
2018-09-04T03:48:45.554Z,16.10
2018-09-04T03:51:15.639Z,16.10
2018-09-04T03:53:45.746Z,16.10
2018-09-04T03:56:15.862Z,16.10
2018-09-04T03:58:46.003Z,16.10
2018-09-04T04:01:16.097Z,16.10
2018-09-04T04:03:46.285Z,16.10
2018-09-04T04:06:16.410Z,16.10
2018-09-04T04:08:46.566Z,16.10
2018-09-04T04:11:16.718Z,16.00
2018-09-04T04:13:46.976Z,16.00
2018-09-04T04:16:17.300Z,16.00
2018-09-04T04:18:47.430Z,16.00
2018-09-04T04:21:17.656Z,16.10
2018-09-04T04:23:48.324Z,16.10
2018-09-04T04:26:19.212Z,16.00
2018-09-04T04:28:49.396Z,16.00
2018-09-04T04:31:19.484Z,16.00
2018-09-04T04:33:49.742Z,16.00
2018-09-04T04:36:19.866Z,16.00
2018-09-04T04:38:49.986Z,16.00
2018-09-04T04:41:20.046Z,16.00
2018-09-04T04:43:50.090Z,16.00
2018-09-04T04:46:20.232Z,16.00
2018-09-04T04:48:50.326Z,16.00
2018-09-04T04:51:20.576Z,16.00
2018-09-04T04:53:50.695Z,16.00
2018-09-04T04:56:20.820Z,16.00
2018-09-04T04:58:51.076Z,16.00
2018-09-04T05:01:21.299Z,16.00
2018-09-04T05:03:51.453Z,16.00
2018-09-04T05:06:21.503Z,16.00
2018-09-04T05:08:51.687Z,16.00
2018-09-04T05:11:21.819Z,16.00
2018-09-04T05:13:51.985Z,16.00
2018-09-04T05:16:22.057Z,16.00
2018-09-04T05:18:52.209Z,16.00
2018-09-04T05:21:22.326Z,16.00
2018-09-04T05:23:52.387Z,16.10
2018-09-04T05:26:22.563Z,16.10
2018-09-04T05:28:52.764Z,16.10
2018-09-04T05:31:22.836Z,16.10
2018-09-04T05:33:53.952Z,16.10
2018-09-04T05:36:24.171Z,16.10
2018-09-04T05:38:54.364Z,16.10
2018-09-04T05:41:24.487Z,16.10
2018-09-04T05:43:56.631Z,16.20
2018-09-04T05:46:38.575Z,16.20
2018-09-04T05:49:09.121Z,16.20
2018-09-04T05:51:39.537Z,16.20
2018-09-04T05:54:09.709Z,16.20
2018-09-04T05:56:39.904Z,16.30
2018-09-04T05:59:10.624Z,16.20
2018-09-04T06:01:40.772Z,16.20
2018-09-04T06:04:10.956Z,16.20
2018-09-04T06:06:41.379Z,16.20
2018-09-04T06:09:12.009Z,16.20
2018-09-04T06:11:42.544Z,16.20
2018-09-04T06:14:12.900Z,16.20
2018-09-04T06:16:43.033Z,16.20
2018-09-04T06:19:13.454Z,16.20
2018-09-04T06:21:43.599Z,16.20
2018-09-04T06:24:13.787Z,16.20
2018-09-04T06:26:43.975Z,16.30
2018-09-04T06:29:15.707Z,16.30
2018-09-04T06:31:45.857Z,16.30
2018-09-04T06:34:16.029Z,16.30
2018-09-04T06:36:46.797Z,16.40
2018-09-04T06:39:16.916Z,16.40
2018-09-04T06:41:47.023Z,16.50
2018-09-04T06:44:17.303Z,16.50
2018-09-04T06:46:47.939Z,16.50
2018-09-04T06:49:18.094Z,16.50
2018-09-04T06:51:48.165Z,16.50
2018-09-04T06:54:18.336Z,16.50
2018-09-04T06:56:48.659Z,16.50
2018-09-04T06:59:19.611Z,16.50
2018-09-04T07:01:49.787Z,16.50
2018-09-04T07:04:19.953Z,16.50
2018-09-04T07:06:50.645Z,16.50
2018-09-04T07:09:20.830Z,16.50
2018-09-04T07:11:50.913Z,16.60
2018-09-04T07:14:21.197Z,16.50
2018-09-04T07:16:51.280Z,16.60
2018-09-04T07:19:28.163Z,16.60
2018-09-04T07:21:58.245Z,16.70
2018-09-04T07:24:28.320Z,16.70
2018-09-04T07:26:58.414Z,16.60
2018-09-04T07:29:28.790Z,16.60
2018-09-04T07:31:59.457Z,16.60
2018-09-04T07:34:29.573Z,16.50
2018-09-04T07:36:59.724Z,16.50
2018-09-04T07:39:30.005Z,16.50
2018-09-04T07:42:00.206Z,16.60
2018-09-04T07:44:30.300Z,16.60
2018-09-04T07:47:00.363Z,16.60
2018-09-04T07:49:31.144Z,16.60
2018-09-04T07:52:01.276Z,16.60
2018-09-04T07:54:31.401Z,16.70
2018-09-04T07:57:01.478Z,16.70
2018-09-04T07:59:32.190Z,16.70
2018-09-04T08:02:02.278Z,16.80
2018-09-04T08:04:32.444Z,16.90
2018-09-04T08:07:02.862Z,16.90
2018-09-04T08:09:34.316Z,17.00
2018-09-04T08:12:04.542Z,17.10
2018-09-04T08:14:34.808Z,17.10
2018-09-04T08:17:04.900Z,17.10
2018-09-04T08:19:35.016Z,17.00
2018-09-04T08:22:05.164Z,17.10
2018-09-04T08:24:35.276Z,17.10
2018-09-04T08:27:05.588Z,17.20
2018-09-04T08:29:35.700Z,17.30
2018-09-04T08:32:05.759Z,17.50
2018-09-04T08:34:35.926Z,17.60
2018-09-04T08:37:06.140Z,17.50
2018-09-04T08:39:36.287Z,17.50
2018-09-04T08:42:06.674Z,17.50
2018-09-04T08:44:36.854Z,17.50
2018-09-04T08:47:06.985Z,17.60
2018-09-04T08:49:37.046Z,17.70
2018-09-04T08:52:07.185Z,17.70
2018-09-04T08:54:37.368Z,17.70
2018-09-04T08:57:07.533Z,17.80
2018-09-04T08:59:37.671Z,17.80
2018-09-04T09:02:07.735Z,17.90
2018-09-04T09:04:37.917Z,18.00
2018-09-04T09:07:08.130Z,18.10
2018-09-04T09:09:38.343Z,18.10
2018-09-04T09:12:08.431Z,18.20
2018-09-04T09:14:38.630Z,18.30
2018-09-04T09:17:08.929Z,18.30
2018-09-04T09:19:38.942Z,18.30
2018-09-04T09:22:09.112Z,18.30
2018-09-04T09:24:39.304Z,18.30
2018-09-04T09:27:09.340Z,18.20
2018-09-04T09:29:39.509Z,18.10
2018-09-04T09:32:09.582Z,18.10
2018-09-04T09:34:39.610Z,18.20
2018-09-04T09:37:09.765Z,18.30
2018-09-04T09:39:39.762Z,18.30
2018-09-04T09:42:13.131Z,18.30
2018-09-04T09:44:44.694Z,18.40
2018-09-04T09:47:14.743Z,18.50
2018-09-04T09:49:44.862Z,18.60
2018-09-04T09:52:14.996Z,18.80
2018-09-04T09:54:45.122Z,18.80
2018-09-04T09:57:15.852Z,18.80
2018-09-04T09:59:46.092Z,18.70
2018-09-04T10:02:19.598Z,18.80
2018-09-04T10:04:49.713Z,18.80
2018-09-04T10:07:19.834Z,18.90
2018-09-04T10:09:50.101Z,19.00
2018-09-04T10:12:20.278Z,19.00
2018-09-04T10:14:50.415Z,19.10
2018-09-04T10:17:20.516Z,19.10
2018-09-04T10:19:50.692Z,19.30
2018-09-04T10:22:32.310Z,19.40
2018-09-04T10:25:02.420Z,19.50
2018-09-04T10:27:32.555Z,19.60
2018-09-04T10:30:02.769Z,19.70
2018-09-04T10:32:32.916Z,19.80
2018-09-04T10:35:03.093Z,19.90
2018-09-04T10:37:33.379Z,19.90
2018-09-04T10:40:08.774Z,19.80
2018-09-04T10:42:38.843Z,19.90
2018-09-04T10:45:13.181Z,20.10
2018-09-04T10:47:43.281Z,20.40
2018-09-04T10:50:13.521Z,20.60
2018-09-04T10:52:43.694Z,20.70
2018-09-04T10:55:14.651Z,20.80
2018-09-04T10:57:44.763Z,20.70
2018-09-04T11:00:16.108Z,20.60
2018-09-04T11:02:47.335Z,20.50
2018-09-04T11:05:17.499Z,20.60
2018-09-04T11:07:47.663Z,20.60
2018-09-04T11:10:17.965Z,20.80
2018-09-04T11:12:48.396Z,20.90
2018-09-04T11:15:18.608Z,21.00
2018-09-04T11:17:48.769Z,21.20
2018-09-04T11:20:18.899Z,21.30
2018-09-04T11:22:49.327Z,21.30
2018-09-04T11:25:19.441Z,21.30
2018-09-04T11:27:49.624Z,21.30
2018-09-04T11:30:19.781Z,21.30
2018-09-04T11:32:49.919Z,21.40
2018-09-04T11:35:20.039Z,21.50
2018-09-04T11:37:50.237Z,21.50
2018-09-04T11:40:20.375Z,21.60
2018-09-04T11:42:50.510Z,21.70
2018-09-04T11:45:20.574Z,21.70
2018-09-04T11:47:50.737Z,21.60
2018-09-04T11:50:21.603Z,21.50
2018-09-04T11:52:51.809Z,21.30
2018-09-04T11:55:21.993Z,21.20
2018-09-04T11:57:52.234Z,21.10
2018-09-04T12:00:26.197Z,21.10
2018-09-04T12:02:56.448Z,21.20
2018-09-04T12:05:26.672Z,21.20
2018-09-04T12:07:56.865Z,21.30
2018-09-04T12:10:27.125Z,21.30
2018-09-04T12:12:57.479Z,21.20
2018-09-04T12:15:27.671Z,21.10
2018-09-04T12:17:57.859Z,21.00
2018-09-04T12:20:54.030Z,20.90
2018-09-04T12:23:23.967Z,20.90
2018-09-04T12:25:55.432Z,20.90
2018-09-04T12:28:25.865Z,20.90
2018-09-04T12:30:56.592Z,21.00
2018-09-04T12:33:27.333Z,21.00
2018-09-04T12:35:57.632Z,21.10
2018-09-04T12:38:32.309Z,21.10
2018-09-04T12:41:06.240Z,21.10
2018-09-04T12:43:38.398Z,21.10
2018-09-04T12:46:08.693Z,21.20
2018-09-04T12:48:38.832Z,21.20
2018-09-04T12:51:08.840Z,21.30
2018-09-04T12:53:38.891Z,21.40
2018-09-04T12:56:09.095Z,21.40
2018-09-04T12:58:39.175Z,21.60
2018-09-04T13:01:09.215Z,21.70
2018-09-04T13:03:39.413Z,21.80
2018-09-04T13:06:09.538Z,21.90
2018-09-04T13:08:40.065Z,21.90
2018-09-04T13:11:10.642Z,21.90
2018-09-04T13:13:40.748Z,22.00
2018-09-04T13:16:10.876Z,22.00
2018-09-04T13:18:40.990Z,22.00
2018-09-04T13:21:11.120Z,22.00
2018-09-04T13:23:41.271Z,22.10
2018-09-04T13:26:11.381Z,22.20
2018-09-04T13:28:41.480Z,22.30
2018-09-04T13:31:11.702Z,22.30
2018-09-04T13:33:41.844Z,22.40
2018-09-04T13:36:11.992Z,22.40
2018-09-04T13:38:42.164Z,22.50
2018-09-04T13:41:12.460Z,22.60
2018-09-04T13:43:42.582Z,22.60
2018-09-04T13:46:12.770Z,22.70
2018-09-04T13:48:44.536Z,22.60
2018-09-04T13:51:14.688Z,22.70
2018-09-04T13:53:44.748Z,22.70
2018-09-04T13:56:15.022Z,22.70
2018-09-04T13:58:45.259Z,22.70
2018-09-04T14:01:15.376Z,22.80
2018-09-04T14:03:45.393Z,22.80
2018-09-04T14:06:15.550Z,22.80
2018-09-04T14:08:45.656Z,22.90
2018-09-04T14:11:15.853Z,22.90
2018-09-04T14:13:46.011Z,23.00
2018-09-04T14:16:20.301Z,23.00
2018-09-04T14:18:50.367Z,23.00
2018-09-04T14:21:20.726Z,23.10
2018-09-04T14:23:51.007Z,23.10
2018-09-04T14:26:21.186Z,23.20
2018-09-04T14:29:06.420Z,23.20
2018-09-04T14:31:21.858Z,23.20
2018-09-04T14:33:52.435Z,23.30
2018-09-04T14:36:22.535Z,23.30
2018-09-04T14:38:52.671Z,23.30
2018-09-04T14:41:22.845Z,23.40
2018-09-04T14:43:52.965Z,23.40
2018-09-04T14:46:23.044Z,23.50
2018-09-04T14:48:53.199Z,23.50
2018-09-04T14:51:23.357Z,23.50
2018-09-04T14:53:53.565Z,23.50
2018-09-04T14:56:23.687Z,23.50
2018-09-04T14:58:53.697Z,23.60
2018-09-04T15:01:23.852Z,23.60
2018-09-04T15:03:54.174Z,23.50
2018-09-04T15:06:24.283Z,23.50
2018-09-04T15:08:54.398Z,23.60
2018-09-04T15:11:24.673Z,23.70
2018-09-04T15:13:54.698Z,23.70
2018-09-04T15:16:24.843Z,23.80
2018-09-04T15:18:55.081Z,23.90
2018-09-04T15:21:25.180Z,24.10
2018-09-04T15:23:55.301Z,24.20
2018-09-04T15:26:25.583Z,24.30
2018-09-04T15:28:55.725Z,24.30
2018-09-04T15:31:25.931Z,24.30
2018-09-04T15:33:56.261Z,24.20
2018-09-04T15:36:26.462Z,24.10
2018-09-04T15:38:56.530Z,24.20
2018-09-04T15:41:26.713Z,24.90
2018-09-04T15:43:57.708Z,26.20
2018-09-04T15:46:27.735Z,27.70
2018-09-04T15:49:03.475Z,28.90
2018-09-04T15:51:33.682Z,29.40
2018-09-04T15:54:04.357Z,28.80
2018-09-04T15:56:34.423Z,28.20
2018-09-04T15:59:05.201Z,27.60
2018-09-04T16:01:35.540Z,26.80
2018-09-04T16:04:06.381Z,26.00
2018-09-04T16:06:36.432Z,25.30
2018-09-04T16:09:07.079Z,24.70
2018-09-04T16:11:37.300Z,24.20
2018-09-04T16:14:07.882Z,23.70
2018-09-04T16:16:38.034Z,23.40
2018-09-04T16:19:08.733Z,23.10
2018-09-04T16:21:38.874Z,22.90
2018-09-04T16:24:08.943Z,22.70
2018-09-04T16:26:39.250Z,22.50
2018-09-04T16:29:10.286Z,22.40
2018-09-04T16:31:40.588Z,22.30
2018-09-04T16:34:10.838Z,22.20
2018-09-04T16:36:40.895Z,22.10
2018-09-04T16:39:11.236Z,22.10
2018-09-04T16:41:41.455Z,22.00
2018-09-04T16:44:11.533Z,21.90
2018-09-04T16:46:41.747Z,21.90
2018-09-04T16:49:12.367Z,21.80
2018-09-04T16:51:42.530Z,21.70
2018-09-04T16:54:12.559Z,21.70
2018-09-04T16:56:42.791Z,21.60
2018-09-04T16:59:13.058Z,21.60
2018-09-04T17:01:43.188Z,21.50
2018-09-04T17:04:13.490Z,21.50
2018-09-04T17:06:43.755Z,21.50
2018-09-04T17:09:14.336Z,21.40
2018-09-04T17:11:45.091Z,21.30
2018-09-04T17:14:15.405Z,21.20
2018-09-04T17:16:45.559Z,21.20
2018-09-04T17:19:15.747Z,21.00
2018-09-04T17:21:45.843Z,20.90
2018-09-04T17:24:16.011Z,20.80
2018-09-04T17:26:46.108Z,20.70
2018-09-04T17:29:16.274Z,20.70
2018-09-04T17:31:46.414Z,20.60
2018-09-04T17:34:16.620Z,20.60
2018-09-04T17:36:48.844Z,20.50
2018-09-04T17:39:19.229Z,20.50
2018-09-04T17:41:49.393Z,20.50
2018-09-04T17:44:20.246Z,20.40
2018-09-04T17:46:50.463Z,20.40
2018-09-04T17:49:20.570Z,20.40
2018-09-04T17:51:50.745Z,20.40
2018-09-04T17:54:21.088Z,20.40
2018-09-04T17:56:51.239Z,20.30
2018-09-04T17:59:21.295Z,20.30
2018-09-04T18:01:52.345Z,20.30
2018-09-04T18:04:22.401Z,20.20
2018-09-04T18:06:52.860Z,20.20
2018-09-04T18:09:22.992Z,20.20
2018-09-04T18:11:53.179Z,20.20
2018-09-04T18:14:23.426Z,20.10
2018-09-04T18:16:53.575Z,20.10
2018-09-04T18:19:23.790Z,20.00
2018-09-04T18:21:55.065Z,20.00
2018-09-04T18:24:25.265Z,19.90
2018-09-04T18:26:55.522Z,19.90
2018-09-04T18:29:26.096Z,19.90
2018-09-04T18:31:56.431Z,19.80
2018-09-04T18:34:26.723Z,19.70
2018-09-04T18:36:56.750Z,19.70
2018-09-04T18:39:26.922Z,19.70
2018-09-04T18:41:57.114Z,19.60
2018-09-04T18:44:27.158Z,19.60
2018-09-04T18:46:58.390Z,19.50
2018-09-04T18:49:28.775Z,19.50
2018-09-04T18:51:59.431Z,19.40
2018-09-04T18:54:29.631Z,19.40
2018-09-04T18:57:00.814Z,19.30
2018-09-04T18:59:39.803Z,19.30
2018-09-04T19:02:10.456Z,19.20
2018-09-04T19:04:40.751Z,19.30
2018-09-04T19:07:10.929Z,19.30
2018-09-04T19:09:41.135Z,19.20
2018-09-04T19:12:11.298Z,19.20
2018-09-04T19:14:41.474Z,19.20
2018-09-04T19:17:11.922Z,19.20
2018-09-04T19:19:42.303Z,19.10
2018-09-04T19:22:13.438Z,19.10
2018-09-04T19:24:43.616Z,19.10
2018-09-04T19:27:13.814Z,19.00
2018-09-04T19:29:44.239Z,19.00
2018-09-04T19:32:15.019Z,19.00
2018-09-04T19:34:45.065Z,18.90
2018-09-04T19:37:15.164Z,18.90
2018-09-04T19:39:45.382Z,18.90
2018-09-04T19:42:15.680Z,18.80
2018-09-04T19:44:45.832Z,18.80
2018-09-04T19:47:15.998Z,18.80
2018-09-04T19:49:46.131Z,18.70
2018-09-04T19:52:16.256Z,18.70
2018-09-04T19:54:46.409Z,18.70
2018-09-04T19:57:16.576Z,18.70
2018-09-04T19:59:46.716Z,18.70
2018-09-04T20:02:16.950Z,18.60
2018-09-04T20:04:48.081Z,18.60
2018-09-04T20:07:18.390Z,18.60
2018-09-04T20:09:49.035Z,18.60
2018-09-04T20:12:19.133Z,18.60
2018-09-04T20:14:49.704Z,18.60
2018-09-04T20:17:20.392Z,18.50
2018-09-04T20:19:50.581Z,18.60
2018-09-04T20:22:32.162Z,18.50
2018-09-04T20:25:02.344Z,18.50
2018-09-04T20:27:32.439Z,18.50
2018-09-04T20:30:02.715Z,18.40
2018-09-04T20:32:32.889Z,18.40
2018-09-04T20:35:03.006Z,18.40
2018-09-04T20:37:33.222Z,18.40
2018-09-04T20:40:03.351Z,18.30
2018-09-04T20:42:33.591Z,18.30
2018-09-04T20:45:03.849Z,18.30
2018-09-04T20:47:34.069Z,18.20
2018-09-04T20:50:04.756Z,18.20
2018-09-04T20:52:34.935Z,18.20
2018-09-04T20:55:05.338Z,18.20
2018-09-04T20:57:34.969Z,18.20
2018-09-04T21:00:25.515Z,18.10
2018-09-04T21:03:12.520Z,18.10
2018-09-04T21:05:59.445Z,18.10
2018-09-04T21:08:41.463Z,18.10
2018-09-04T21:11:11.723Z,18.00
2018-09-04T21:13:41.807Z,18.00
2018-09-04T21:16:12.000Z,18.00
2018-09-04T21:18:42.081Z,18.00
2018-09-04T21:21:12.157Z,17.90
2018-09-04T21:23:42.305Z,17.90
2018-09-04T21:26:13.036Z,18.00
2018-09-04T21:28:43.231Z,17.90
2018-09-04T21:31:13.403Z,18.00
2018-09-04T21:33:43.521Z,18.00
2018-09-04T21:36:13.733Z,17.90
2018-09-04T21:38:43.848Z,17.90
2018-09-04T21:41:14.106Z,17.90
2018-09-04T21:43:44.432Z,17.90
2018-09-04T21:46:14.981Z,17.90
2018-09-04T21:48:45.136Z,17.90
2018-09-04T21:51:15.240Z,17.90
2018-09-04T21:53:45.442Z,17.90
2018-09-04T21:56:15.521Z,17.90
2018-09-04T21:58:46.303Z,17.90
2018-09-04T22:01:18.043Z,17.90
2018-09-04T22:03:48.779Z,17.90
2018-09-04T22:06:18.976Z,17.90
2018-09-04T22:08:50.213Z,17.90
2018-09-04T22:11:20.891Z,17.90
2018-09-04T22:13:51.300Z,17.80
2018-09-04T22:16:21.572Z,17.80
2018-09-04T22:18:52.222Z,17.80
2018-09-04T22:21:22.337Z,17.80
2018-09-04T22:23:52.795Z,17.70
2018-09-04T22:26:23.551Z,17.70
2018-09-04T22:28:53.621Z,17.70
2018-09-04T22:31:23.805Z,17.60
2018-09-04T22:33:54.155Z,17.60
2018-09-04T22:36:24.275Z,17.50
2018-09-04T22:38:54.480Z,17.50
2018-09-04T22:41:24.585Z,17.50
2018-09-04T22:43:55.056Z,17.40
2018-09-04T22:46:25.106Z,17.40
2018-09-04T22:48:55.285Z,17.40
2018-09-04T22:51:38.250Z,17.30
2018-09-04T22:54:08.686Z,17.30
2018-09-04T22:56:39.221Z,17.30
2018-09-04T22:59:09.855Z,17.30
2018-09-04T23:01:39.937Z,17.20
2018-09-04T23:04:10.366Z,17.20
2018-09-04T23:06:40.438Z,17.20
2018-09-04T23:09:11.005Z,17.20
2018-09-04T23:11:41.673Z,17.10
2018-09-04T23:14:12.225Z,17.10
2018-09-04T23:16:42.479Z,17.10
2018-09-04T23:19:12.909Z,17.10
2018-09-04T23:21:42.952Z,17.00
2018-09-04T23:24:13.051Z,17.00
2018-09-04T23:26:43.149Z,17.00
2018-09-04T23:29:14.095Z,16.90
2018-09-04T23:31:44.145Z,16.90
2018-09-04T23:34:14.678Z,16.90
2018-09-04T23:36:45.174Z,16.90
2018-09-04T23:39:15.364Z,16.90
2018-09-04T23:41:45.494Z,16.80
2018-09-04T23:44:15.912Z,16.90
2018-09-04T23:46:46.002Z,16.80
2018-09-04T23:49:16.139Z,16.80
2018-09-04T23:51:46.083Z,16.80
2018-09-04T23:54:16.205Z,16.80
2018-09-04T23:56:46.342Z,16.80
2018-09-04T23:59:17.084Z,16.80
